sensor_id;sensor_type;location;lat;lon;timestamp;pressure;altitude;pressure_sealevel;temperature;humidity
10992;BME280;5549;47.028;15.514;2023-07-02T00:00:38;95850.31;;;20.49;60.90
10992;BME280;5549;47.028;15.514;2023-07-02T00:03:08;95846.81;;;20.49;61.36
10992;BME280;5549;47.028;15.514;2023-07-02T00:05:40;95843.53;;;20.47;61.49
10992;BME280;5549;47.028;15.514;2023-07-02T00:08:08;95844.75;;;20.51;61.47
10992;BME280;5549;47.028;15.514;2023-07-02T00:10:38;95841.50;;;20.49;61.98
10992;BME280;5549;47.028;15.514;2023-07-02T00:13:05;95845.59;;;20.52;61.21
10992;BME280;5549;47.028;15.514;2023-07-02T00:15:35;95845.19;;;20.48;61.12
10992;BME280;5549;47.028;15.514;2023-07-02T00:18:03;95856.25;;;20.45;60.54
10992;BME280;5549;47.028;15.514;2023-07-02T00:20:31;95851.75;;;20.45;61.13
10992;BME280;5549;47.028;15.514;2023-07-02T00:23:04;95848.25;;;20.45;61.65
10992;BME280;5549;47.028;15.514;2023-07-02T00:25:33;95848.88;;;20.47;61.12
10992;BME280;5549;47.028;15.514;2023-07-02T00:28:01;95843.75;;;20.45;61.40
10992;BME280;5549;47.028;15.514;2023-07-02T00:30:29;95857.09;;;20.45;61.50
10992;BME280;5549;47.028;15.514;2023-07-02T00:32:56;95852.38;;;20.41;61.43
10992;BME280;5549;47.028;15.514;2023-07-02T00:35:24;95855.03;;;20.41;62.15
10992;BME280;5549;47.028;15.514;2023-07-02T00:37:54;95854.63;;;20.31;61.65
10992;BME280;5549;47.028;15.514;2023-07-02T00:40:23;95851.13;;;20.30;61.60
10992;BME280;5549;47.028;15.514;2023-07-02T00:42:52;95860.75;;;20.31;61.94
10992;BME280;5549;47.028;15.514;2023-07-02T00:45:20;95860.34;;;20.28;62.94
10992;BME280;5549;47.028;15.514;2023-07-02T00:47:48;95853.59;;;20.25;62.86
10992;BME280;5549;47.028;15.514;2023-07-02T00:50:16;95851.13;;;20.24;63.03
10992;BME280;5549;47.028;15.514;2023-07-02T00:52:43;95855.66;;;20.10;63.19
10992;BME280;5549;47.028;15.514;2023-07-02T00:55:11;95856.47;;;20.10;63.15
10992;BME280;5549;47.028;15.514;2023-07-02T00:57:42;95855.03;;;20.01;64.47
10992;BME280;5549;47.028;15.514;2023-07-02T01:00:13;95859.94;;;19.98;65.28
10992;BME280;5549;47.028;15.514;2023-07-02T01:02:54;95855.03;;;19.88;66.65
10992;BME280;5549;47.028;15.514;2023-07-02T01:05:30;95851.75;;;19.86;66.41
10992;BME280;5549;47.028;15.514;2023-07-02T01:08:03;95854.19;;;19.81;66.99
10992;BME280;5549;47.028;15.514;2023-07-02T01:10:34;95856.03;;;19.74;67.78
10992;BME280;5549;47.028;15.514;2023-07-02T01:13:16;95848.47;;;19.84;67.58
10992;BME280;5549;47.028;15.514;2023-07-02T01:15:46;95849.50;;;19.83;67.91
10992;BME280;5549;47.028;15.514;2023-07-02T01:18:17;95855.84;;;19.82;67.80
10992;BME280;5549;47.028;15.514;2023-07-02T01:20:48;95857.88;;;19.80;67.60
10992;BME280;5549;47.028;15.514;2023-07-02T01:23:18;95853.78;;;19.71;68.43
10992;BME280;5549;47.028;15.514;2023-07-02T01:25:50;95856.66;;;19.76;68.08
10992;BME280;5549;47.028;15.514;2023-07-02T01:28:25;95854.59;;;19.78;68.11
10992;BME280;5549;47.028;15.514;2023-07-02T01:30:53;95852.56;;;19.73;68.35
10992;BME280;5549;47.028;15.514;2023-07-02T01:33:21;95846.81;;;19.76;68.18
10992;BME280;5549;47.028;15.514;2023-07-02T01:35:52;95844.34;;;19.75;68.49
10992;BME280;5549;47.028;15.514;2023-07-02T01:38:20;95847.84;;;19.75;68.59
10992;BME280;5549;47.028;15.514;2023-07-02T01:40:48;95847.63;;;19.77;68.37
10992;BME280;5549;47.028;15.514;2023-07-02T01:43:16;95857.47;;;19.76;68.83
10992;BME280;5549;47.028;15.514;2023-07-02T01:45:45;95849.28;;;19.78;68.73
10992;BME280;5549;47.028;15.514;2023-07-02T01:48:15;95850.72;;;19.80;68.90
10992;BME280;5549;47.028;15.514;2023-07-02T01:50:43;95841.91;;;19.80;68.78
10992;BME280;5549;47.028;15.514;2023-07-02T01:53:15;95846.22;;;19.81;68.28
10992;BME280;5549;47.028;15.514;2023-07-02T01:55:42;95848.88;;;19.81;68.21
10992;BME280;5549;47.028;15.514;2023-07-02T01:58:10;95841.50;;;19.83;67.87
10992;BME280;5549;47.028;15.514;2023-07-02T02:00:38;95839.66;;;19.83;68.11
10992;BME280;5549;47.028;15.514;2023-07-02T02:03:09;95841.50;;;19.83;67.88
10992;BME280;5549;47.028;15.514;2023-07-02T02:05:42;95833.91;;;19.80;68.33
10992;BME280;5549;47.028;15.514;2023-07-02T02:08:10;95841.06;;;19.73;69.17
10992;BME280;5549;47.028;15.514;2023-07-02T02:10:42;95841.25;;;19.65;69.51
10992;BME280;5549;47.028;15.514;2023-07-02T02:13:09;95839.81;;;19.56;69.57
10992;BME280;5549;47.028;15.514;2023-07-02T02:15:39;95841.81;;;19.40;69.76
10992;BME280;5549;47.028;15.514;2023-07-02T02:18:09;95847.84;;;19.08;70.60
10992;BME280;5549;47.028;15.514;2023-07-02T02:20:37;95846.44;;;18.77;71.07
10992;BME280;5549;47.028;15.514;2023-07-02T02:23:04;95848.53;;;18.82;70.64
10992;BME280;5549;47.028;15.514;2023-07-02T02:25:32;95847.19;;;19.06;69.16
10992;BME280;5549;47.028;15.514;2023-07-02T02:28:01;95840.44;;;19.03;69.16
10992;BME280;5549;47.028;15.514;2023-07-02T02:30:29;95846.34;;;18.99;68.69
10992;BME280;5549;47.028;15.514;2023-07-02T02:32:56;95845.75;;;19.03;67.76
10992;BME280;5549;47.028;15.514;2023-07-02T02:35:28;95845.31;;;19.00;67.60
10992;BME280;5549;47.028;15.514;2023-07-02T02:38:01;95841.53;;;19.15;67.01
10992;BME280;5549;47.028;15.514;2023-07-02T02:40:28;95834.59;;;19.21;67.04
10992;BME280;5549;47.028;15.514;2023-07-02T02:42:56;95849.00;;;18.99;67.71
10992;BME280;5549;47.028;15.514;2023-07-02T02:45:27;95842.41;;;18.88;68.16
10992;BME280;5549;47.028;15.514;2023-07-02T02:47:57;95843.81;;;18.84;68.48
10992;BME280;5549;47.028;15.514;2023-07-02T02:50:27;95843.81;;;18.84;68.50
10992;BME280;5549;47.028;15.514;2023-07-02T02:52:54;95842.00;;;18.91;68.04
10992;BME280;5549;47.028;15.514;2023-07-02T02:55:24;95843.88;;;18.97;67.93
10992;BME280;5549;47.028;15.514;2023-07-02T02:57:54;95855.13;;;18.92;67.99
10992;BME280;5549;47.028;15.514;2023-07-02T03:00:22;95846.19;;;18.66;68.32
10992;BME280;5549;47.028;15.514;2023-07-02T03:02:51;95849.69;;;18.73;68.39
10992;BME280;5549;47.028;15.514;2023-07-02T03:05:21;95846.06;;;18.80;67.72
10992;BME280;5549;47.028;15.514;2023-07-02T03:07:50;95858.28;;;18.68;68.24
10992;BME280;5549;47.028;15.514;2023-07-02T03:10:18;95846.72;;;18.54;68.93
10992;BME280;5549;47.028;15.514;2023-07-02T03:12:46;95850.19;;;18.55;68.75
10992;BME280;5549;47.028;15.514;2023-07-02T03:15:17;95855.19;;;18.37;69.42
10992;BME280;5549;47.028;15.514;2023-07-02T03:17:44;95860.13;;;18.40;69.21
10992;BME280;5549;47.028;15.514;2023-07-02T03:20:13;95869.59;;;18.49;69.11
10992;BME280;5549;47.028;15.514;2023-07-02T03:22:41;95871.63;;;18.47;69.25
10992;BME280;5549;47.028;15.514;2023-07-02T03:25:09;95863.44;;;18.48;68.83
10992;BME280;5549;47.028;15.514;2023-07-02T03:27:39;95869.97;;;18.46;68.86
10992;BME280;5549;47.028;15.514;2023-07-02T03:30:10;95873.16;;;18.35;69.96
10992;BME280;5549;47.028;15.514;2023-07-02T03:32:37;95870.78;;;18.46;69.89
10992;BME280;5549;47.028;15.514;2023-07-02T03:35:08;95874.00;;;18.35;70.05
10992;BME280;5549;47.028;15.514;2023-07-02T03:37:37;95878.28;;;18.36;69.67
10992;BME280;5549;47.028;15.514;2023-07-02T03:40:09;95881.19;;;18.41;69.19
10992;BME280;5549;47.028;15.514;2023-07-02T03:42:36;95881.69;;;18.58;68.85
10992;BME280;5549;47.028;15.514;2023-07-02T03:45:07;95877.75;;;18.47;69.10
10992;BME280;5549;47.028;15.514;2023-07-02T03:47:37;95887.13;;;18.71;68.22
10992;BME280;5549;47.028;15.514;2023-07-02T03:50:09;95880.25;;;18.83;67.67
10992;BME280;5549;47.028;15.514;2023-07-02T03:52:41;95881.28;;;18.89;68.05
10992;BME280;5549;47.028;15.514;2023-07-02T03:55:09;95875.81;;;18.97;67.94
10992;BME280;5549;47.028;15.514;2023-07-02T03:57:36;95885.81;;;18.88;68.40
10992;BME280;5549;47.028;15.514;2023-07-02T04:00:08;95890.41;;;18.73;68.53
10992;BME280;5549;47.028;15.514;2023-07-02T04:02:39;95896.63;;;18.87;68.98
10992;BME280;5549;47.028;15.514;2023-07-02T04:05:07;95890.41;;;18.73;69.91
10992;BME280;5549;47.028;15.514;2023-07-02T04:07:35;95896.84;;;18.85;68.72
10992;BME280;5549;47.028;15.514;2023-07-02T04:10:05;95893.59;;;18.90;68.26
10992;BME280;5549;47.028;15.514;2023-07-02T04:12:33;95897.28;;;18.96;68.10
10992;BME280;5549;47.028;15.514;2023-07-02T04:15:00;95903.47;;;19.03;68.38
10992;BME280;5549;47.028;15.514;2023-07-02T04:17:28;95902.72;;;19.09;67.95
10992;BME280;5549;47.028;15.514;2023-07-02T04:19:57;95902.31;;;19.12;67.91
10992;BME280;5549;47.028;15.514;2023-07-02T04:22:25;95906.09;;;19.31;67.35
10992;BME280;5549;47.028;15.514;2023-07-02T04:24:52;95906.94;;;19.38;67.35
10992;BME280;5549;47.028;15.514;2023-07-02T04:27:23;95915.03;;;19.16;68.75
10992;BME280;5549;47.028;15.514;2023-07-02T04:29:54;95916.69;;;19.24;67.71
10992;BME280;5549;47.028;15.514;2023-07-02T04:32:22;95913.00;;;19.18;68.19
10992;BME280;5549;47.028;15.514;2023-07-02T04:34:50;95907.31;;;19.28;67.96
10992;BME280;5549;47.028;15.514;2023-07-02T04:37:18;95912.41;;;19.23;68.11
10992;BME280;5549;47.028;15.514;2023-07-02T04:39:47;95909.41;;;19.05;67.09
10992;BME280;5549;47.028;15.514;2023-07-02T04:42:17;95929.69;;;19.06;67.24
10992;BME280;5549;47.028;15.514;2023-07-02T04:44:46;95924.06;;;19.22;66.77
10992;BME280;5549;47.028;15.514;2023-07-02T04:47:14;95921.22;;;19.30;67.44
10992;BME280;5549;47.028;15.514;2023-07-02T04:49:43;95925.75;;;19.30;67.99
10992;BME280;5549;47.028;15.514;2023-07-02T04:52:13;95930.44;;;19.28;68.16
10992;BME280;5549;47.028;15.514;2023-07-02T04:54:43;95931.50;;;19.33;68.03
10992;BME280;5549;47.028;15.514;2023-07-02T04:57:11;95931.94;;;19.43;68.10
10992;BME280;5549;47.028;15.514;2023-07-02T04:59:39;95935.44;;;19.50;68.17
10992;BME280;5549;47.028;15.514;2023-07-02T05:02:08;95938.75;;;19.52;68.44
10992;BME280;5549;47.028;15.514;2023-07-02T05:04:36;95946.34;;;19.56;68.87
10992;BME280;5549;47.028;15.514;2023-07-02T05:07:04;95949.25;;;19.61;68.94
10992;BME280;5549;47.028;15.514;2023-07-02T05:09:34;95946.97;;;19.58;68.91
10992;BME280;5549;47.028;15.514;2023-07-02T05:12:05;95942.09;;;19.68;68.84
10992;BME280;5549;47.028;15.514;2023-07-02T05:14:35;95949.69;;;19.30;71.59
10992;BME280;5549;47.028;15.514;2023-07-02T05:17:03;95943.41;;;19.44;71.01
10992;BME280;5549;47.028;15.514;2023-07-02T05:19:35;95942.88;;;19.62;70.49
10992;BME280;5549;47.028;15.514;2023-07-02T05:22:03;95946.56;;;19.54;70.00
10992;BME280;5549;47.028;15.514;2023-07-02T05:24:30;95952.69;;;19.54;71.20
10992;BME280;5549;47.028;15.514;2023-07-02T05:27:00;95951.75;;;19.75;70.56
10992;BME280;5549;47.028;15.514;2023-07-02T05:29:28;95959.16;;;19.86;70.86
10992;BME280;5549;47.028;15.514;2023-07-02T05:31:55;95957.53;;;19.99;70.51
10992;BME280;5549;47.028;15.514;2023-07-02T05:34:23;95964.53;;;20.06;70.51
10992;BME280;5549;47.028;15.514;2023-07-02T05:36:52;95952.63;;;20.15;71.00
10992;BME280;5549;47.028;15.514;2023-07-02T05:39:21;95961.88;;;20.19;70.53
10992;BME280;5549;47.028;15.514;2023-07-02T05:41:49;95960.44;;;20.24;70.75
10992;BME280;5549;47.028;15.514;2023-07-02T05:44:17;95965.16;;;20.35;71.10
10992;BME280;5549;47.028;15.514;2023-07-02T05:46:45;95971.97;;;20.44;71.94
10992;BME280;5549;47.028;15.514;2023-07-02T05:49:15;95970.50;;;20.35;71.93
10992;BME280;5549;47.028;15.514;2023-07-02T05:51:42;95971.16;;;20.43;71.51
10992;BME280;5549;47.028;15.514;2023-07-02T05:54:11;95974.00;;;20.35;71.62
10992;BME280;5549;47.028;15.514;2023-07-02T05:56:39;95974.22;;;20.54;71.13
10992;BME280;5549;47.028;15.514;2023-07-02T05:59:07;95979.16;;;20.63;70.57
10992;BME280;5549;47.028;15.514;2023-07-02T06:01:34;95979.38;;;20.81;71.27
10992;BME280;5549;47.028;15.514;2023-07-02T06:04:02;95981.22;;;20.94;70.81
10992;BME280;5549;47.028;15.514;2023-07-02T06:06:29;95986.56;;;20.94;69.76
10992;BME280;5549;47.028;15.514;2023-07-02T06:08:57;95984.28;;;20.98;69.45
10992;BME280;5549;47.028;15.514;2023-07-02T06:11:28;95991.88;;;21.14;69.03
10992;BME280;5549;47.028;15.514;2023-07-02T06:13:58;95990.22;;;21.26;68.96
10992;BME280;5549;47.028;15.514;2023-07-02T06:16:28;95995.31;;;21.41;68.99
10992;BME280;5549;47.028;15.514;2023-07-02T06:18:58;95990.94;;;21.60;68.72
10992;BME280;5549;47.028;15.514;2023-07-02T06:21:27;96000.53;;;21.74;68.11
10992;BME280;5549;47.028;15.514;2023-07-02T06:24:00;96001.31;;;21.88;67.36
10992;BME280;5549;47.028;15.514;2023-07-02T06:26:29;96003.09;;;22.00;66.91
10992;BME280;5549;47.028;15.514;2023-07-02T06:28:58;95999.94;;;22.17;67.28
10992;BME280;5549;47.028;15.514;2023-07-02T06:31:25;96001.50;;;22.31;67.10
10992;BME280;5549;47.028;15.514;2023-07-02T06:33:56;96002.44;;;22.43;66.55
10992;BME280;5549;47.028;15.514;2023-07-02T06:36:23;95999.72;;;22.56;65.51
10992;BME280;5549;47.028;15.514;2023-07-02T06:38:53;96000.09;;;22.60;64.80
10992;BME280;5549;47.028;15.514;2023-07-02T06:41:22;95999.16;;;22.72;64.70
10992;BME280;5549;47.028;15.514;2023-07-02T06:43:53;95999.91;;;22.86;64.04
10992;BME280;5549;47.028;15.514;2023-07-02T06:46:23;95998.81;;;22.94;63.62
10992;BME280;5549;47.028;15.514;2023-07-02T06:48:51;96000.16;;;23.03;63.29
10992;BME280;5549;47.028;15.514;2023-07-02T06:51:21;96003.44;;;23.05;62.45
10992;BME280;5549;47.028;15.514;2023-07-02T06:53:48;96014.47;;;23.15;62.53
10992;BME280;5549;47.028;15.514;2023-07-02T06:56:16;96010.31;;;23.19;62.48
10992;BME280;5549;47.028;15.514;2023-07-02T06:58:44;96007.78;;;23.24;62.11
10992;BME280;5549;47.028;15.514;2023-07-02T07:01:13;96006.63;;;23.39;62.05
10992;BME280;5549;47.028;15.514;2023-07-02T07:03:40;96015.84;;;23.43;62.17
10992;BME280;5549;47.028;15.514;2023-07-02T07:06:08;96020.75;;;23.46;61.60
10992;BME280;5549;47.028;15.514;2023-07-02T07:08:38;96031.19;;;23.35;60.37
10992;BME280;5549;47.028;15.514;2023-07-02T07:11:06;96030.34;;;23.35;60.91
10992;BME280;5549;47.028;15.514;2023-07-02T07:13:35;96034.16;;;23.27;62.19
10992;BME280;5549;47.028;15.514;2023-07-02T07:16:03;96028.22;;;23.44;62.36
10992;BME280;5549;47.028;15.514;2023-07-02T07:18:32;96028.22;;;23.44;61.37
10992;BME280;5549;47.028;15.514;2023-07-02T07:21:02;96030.44;;;23.47;60.43
10992;BME280;5549;47.028;15.514;2023-07-02T07:23:30;96031.09;;;23.42;60.67
10992;BME280;5549;47.028;15.514;2023-07-02T07:26:00;96026.47;;;23.56;57.11
10992;BME280;5549;47.028;15.514;2023-07-02T07:28:30;96033.66;;;23.92;59.25
10992;BME280;5549;47.028;15.514;2023-07-02T07:30:57;96030.28;;;24.15;56.44
10992;BME280;5549;47.028;15.514;2023-07-02T07:33:25;96027.66;;;24.45;56.83
10992;BME280;5549;47.028;15.514;2023-07-02T07:35:54;96030.38;;;24.56;53.73
10992;BME280;5549;47.028;15.514;2023-07-02T07:38:21;96036.75;;;24.85;53.61
10992;BME280;5549;47.028;15.514;2023-07-02T07:40:51;96039.50;;;25.20;54.74
10992;BME280;5549;47.028;15.514;2023-07-02T07:43:19;96035.97;;;25.08;52.69
10992;BME280;5549;47.028;15.514;2023-07-02T07:45:47;96036.34;;;25.47;55.26
10992;BME280;5549;47.028;15.514;2023-07-02T07:48:15;96044.13;;;25.83;52.91
10992;BME280;5549;47.028;15.514;2023-07-02T07:50:43;96033.59;;;25.94;52.53
10992;BME280;5549;47.028;15.514;2023-07-02T07:53:14;96034.34;;;25.77;52.09
10992;BME280;5549;47.028;15.514;2023-07-02T07:55:42;96029.09;;;26.51;54.02
10992;BME280;5549;47.028;15.514;2023-07-02T07:58:09;96021.78;;;26.80;53.23
10992;BME280;5549;47.028;15.514;2023-07-02T08:00:39;96020.84;;;27.03;48.67
10992;BME280;5549;47.028;15.514;2023-07-02T08:03:10;96021.25;;;27.28;47.42
10992;BME280;5549;47.028;15.514;2023-07-02T08:05:38;96026.31;;;27.25;46.45
10992;BME280;5549;47.028;15.514;2023-07-02T08:08:05;96028.13;;;27.02;44.92
10992;BME280;5549;47.028;15.514;2023-07-02T08:10:38;96024.59;;;27.19;45.90
10992;BME280;5549;47.028;15.514;2023-07-02T08:13:05;96026.53;;;27.40;46.48
10992;BME280;5549;47.028;15.514;2023-07-02T08:15:35;96011.91;;;27.36;42.62
10992;BME280;5549;47.028;15.514;2023-07-02T08:18:03;96016.75;;;27.34;44.25
10992;BME280;5549;47.028;15.514;2023-07-02T08:20:35;96016.75;;;27.34;44.14
10992;BME280;5549;47.028;15.514;2023-07-02T08:23:05;96011.13;;;27.57;43.62
10992;BME280;5549;47.028;15.514;2023-07-02T08:25:33;96011.22;;;27.79;42.13
10992;BME280;5549;47.028;15.514;2023-07-02T08:28:02;96014.16;;;27.77;44.23
10992;BME280;5549;47.028;15.514;2023-07-02T08:30:30;96024.47;;;27.64;44.31
10992;BME280;5549;47.028;15.514;2023-07-02T08:32:58;96027.16;;;27.64;43.85
10992;BME280;5549;47.028;15.514;2023-07-02T08:35:28;96033.69;;;27.68;45.50
10992;BME280;5549;47.028;15.514;2023-07-02T08:37:55;96039.91;;;27.68;45.13
10992;BME280;5549;47.028;15.514;2023-07-02T08:40:26;96029.53;;;27.77;46.44
10992;BME280;5549;47.028;15.514;2023-07-02T08:42:55;96034.19;;;27.65;45.14
10992;BME280;5549;47.028;15.514;2023-07-02T08:45:25;96035.94;;;27.93;46.40
10992;BME280;5549;47.028;15.514;2023-07-02T08:47:54;96026.09;;;28.03;41.72
10992;BME280;5549;47.028;15.514;2023-07-02T08:50:26;96023.31;;;27.98;43.16
10992;BME280;5549;47.028;15.514;2023-07-02T08:52:54;96021.75;;;27.81;42.68
10992;BME280;5549;47.028;15.514;2023-07-02T08:55:24;96021.25;;;27.84;43.25
10992;BME280;5549;47.028;15.514;2023-07-02T08:57:57;96015.59;;;28.07;44.39
10992;BME280;5549;47.028;15.514;2023-07-02T09:00:28;96026.81;;;28.21;44.56
10992;BME280;5549;47.028;15.514;2023-07-02T09:02:57;96028.16;;;28.18;43.05
10992;BME280;5549;47.028;15.514;2023-07-02T09:05:25;96017.50;;;28.28;41.92
10992;BME280;5549;47.028;15.514;2023-07-02T09:07:54;96020.50;;;28.32;39.14
10992;BME280;5549;47.028;15.514;2023-07-02T09:10:29;96022.13;;;28.33;40.13
10992;BME280;5549;47.028;15.514;2023-07-02T09:13:04;96025.59;;;28.82;41.85
10992;BME280;5549;47.028;15.514;2023-07-02T09:15:40;96021.75;;;28.78;39.67
10992;BME280;5549;47.028;15.514;2023-07-02T09:18:18;96025.69;;;29.24;41.28
10992;BME280;5549;47.028;15.514;2023-07-02T09:20:51;96016.22;;;29.27;40.38
10992;BME280;5549;47.028;15.514;2023-07-02T09:23:19;96020.53;;;29.23;39.83
10992;BME280;5549;47.028;15.514;2023-07-02T09:25:49;96021.38;;;29.28;40.60
10992;BME280;5549;47.028;15.514;2023-07-02T09:28:19;96024.72;;;29.03;41.38
10992;BME280;5549;47.028;15.514;2023-07-02T09:30:56;96025.88;;;29.13;43.07
10992;BME280;5549;47.028;15.514;2023-07-02T09:33:28;96028.91;;;29.21;41.28
10992;BME280;5549;47.028;15.514;2023-07-02T09:35:55;96023.47;;;29.16;38.05
10992;BME280;5549;47.028;15.514;2023-07-02T09:38:24;96022.56;;;29.05;37.30
10992;BME280;5549;47.028;15.514;2023-07-02T09:40:52;96028.56;;;29.13;38.45
10992;BME280;5549;47.028;15.514;2023-07-02T09:43:24;96026.78;;;28.91;39.29
10992;BME280;5549;47.028;15.514;2023-07-02T09:45:56;96029.56;;;29.01;40.14
10992;BME280;5549;47.028;15.514;2023-07-02T09:48:24;96027.50;;;29.14;39.72
10992;BME280;5549;47.028;15.514;2023-07-02T09:50:54;96026.06;;;28.74;39.47
10992;BME280;5549;47.028;15.514;2023-07-02T09:53:28;96030.28;;;28.65;39.94
10992;BME280;5549;47.028;15.514;2023-07-02T09:55:58;96026.56;;;28.71;41.43
10992;BME280;5549;47.028;15.514;2023-07-02T09:58:26;96030.03;;;28.66;42.07
10992;BME280;5549;47.028;15.514;2023-07-02T10:00:55;96031.94;;;28.93;40.66
10992;BME280;5549;47.028;15.514;2023-07-02T10:03:30;96031.81;;;28.56;39.54
10992;BME280;5549;47.028;15.514;2023-07-02T10:06:05;96034.31;;;28.35;40.64
10992;BME280;5549;47.028;15.514;2023-07-02T10:08:35;96035.25;;;28.02;40.88
10992;BME280;5549;47.028;15.514;2023-07-02T10:11:10;96036.94;;;28.08;40.49
10992;BME280;5549;47.028;15.514;2023-07-02T10:13:39;96032.38;;;28.58;40.11
10992;BME280;5549;47.028;15.514;2023-07-02T10:16:09;96041.13;;;28.21;41.47
10992;BME280;5549;47.028;15.514;2023-07-02T10:18:37;96030.13;;;28.50;40.51
10992;BME280;5549;47.028;15.514;2023-07-02T10:21:23;96028.63;;;28.59;40.98
10992;BME280;5549;47.028;15.514;2023-07-02T10:23:50;96037.63;;;28.42;44.08
10992;BME280;5549;47.028;15.514;2023-07-02T10:26:19;96040.94;;;28.77;42.29
10992;BME280;5549;47.028;15.514;2023-07-02T10:28:57;96040.75;;;28.83;42.20
10992;BME280;5549;47.028;15.514;2023-07-02T10:31:26;96043.69;;;28.82;39.62
10992;BME280;5549;47.028;15.514;2023-07-02T10:33:54;96042.44;;;28.62;39.83
10992;BME280;5549;47.028;15.514;2023-07-02T10:36:23;96044.59;;;28.87;39.18
10992;BME280;5549;47.028;15.514;2023-07-02T10:38:51;96041.72;;;28.72;39.63
10992;BME280;5549;47.028;15.514;2023-07-02T10:41:28;96044.81;;;28.59;41.76
10992;BME280;5549;47.028;15.514;2023-07-02T10:44:06;96038.81;;;28.52;40.22
10992;BME280;5549;47.028;15.514;2023-07-02T10:46:43;96044.56;;;28.60;39.33
10992;BME280;5549;47.028;15.514;2023-07-02T10:49:13;96045.94;;;28.63;38.42
10992;BME280;5549;47.028;15.514;2023-07-02T10:51:43;96047.13;;;28.72;40.30
10992;BME280;5549;47.028;15.514;2023-07-02T10:54:13;96044.56;;;28.60;40.96
10992;BME280;5549;47.028;15.514;2023-07-02T10:56:42;96046.09;;;28.78;41.79
10992;BME280;5549;47.028;15.514;2023-07-02T10:59:12;96032.84;;;28.50;41.34
10992;BME280;5549;47.028;15.514;2023-07-02T11:01:52;96039.81;;;28.46;40.40
10992;BME280;5549;47.028;15.514;2023-07-02T11:04:21;96025.34;;;28.57;40.26
10992;BME280;5549;47.028;15.514;2023-07-02T11:06:49;96028.63;;;28.59;39.25
10992;BME280;5549;47.028;15.514;2023-07-02T11:09:19;96035.75;;;28.70;39.68
10992;BME280;5549;47.028;15.514;2023-07-02T11:11:52;96034.41;;;28.72;38.51
10992;BME280;5549;47.028;15.514;2023-07-02T11:14:28;96034.50;;;28.83;40.27
10992;BME280;5549;47.028;15.514;2023-07-02T11:16:58;96036.56;;;28.97;37.84
10992;BME280;5549;47.028;15.514;2023-07-02T11:19:29;96037.59;;;28.91;41.06
10992;BME280;5549;47.028;15.514;2023-07-02T11:21:58;96026.19;;;28.84;39.38
10992;BME280;5549;47.028;15.514;2023-07-02T11:24:32;96033.22;;;28.85;39.54
10992;BME280;5549;47.028;15.514;2023-07-02T11:27:02;96034.84;;;28.86;37.85
10992;BME280;5549;47.028;15.514;2023-07-02T11:29:34;96033.59;;;28.72;40.35
10992;BME280;5549;47.028;15.514;2023-07-02T11:32:07;96027.16;;;28.78;39.47
10992;BME280;5549;47.028;15.514;2023-07-02T11:34:39;96029.13;;;29.15;42.14
10992;BME280;5549;47.028;15.514;2023-07-02T11:37:07;96032.66;;;29.15;39.63
10992;BME280;5549;47.028;15.514;2023-07-02T11:39:35;96029.81;;;29.37;41.12
10992;BME280;5549;47.028;15.514;2023-07-02T11:42:05;96032.19;;;29.60;36.35
10992;BME280;5549;47.028;15.514;2023-07-02T11:44:33;96031.66;;;29.58;38.74
10992;BME280;5549;47.028;15.514;2023-07-02T11:47:03;96025.19;;;29.64;39.43
10992;BME280;5549;47.028;15.514;2023-07-02T11:49:32;96029.06;;;29.84;36.92
10992;BME280;5549;47.028;15.514;2023-07-02T11:52:00;96024.75;;;29.88;38.20
10992;BME280;5549;47.028;15.514;2023-07-02T11:54:30;96029.06;;;29.84;38.09
10992;BME280;5549;47.028;15.514;2023-07-02T11:56:57;96026.88;;;29.01;38.32
10992;BME280;5549;47.028;15.514;2023-07-02T11:59:25;96023.31;;;29.33;38.94
10992;BME280;5549;47.028;15.514;2023-07-02T12:01:53;96029.97;;;29.20;38.20
10992;BME280;5549;47.028;15.514;2023-07-02T12:04:20;96040.84;;;28.93;38.31
10992;BME280;5549;47.028;15.514;2023-07-02T12:06:49;96034.78;;;29.45;38.86
10992;BME280;5549;47.028;15.514;2023-07-02T12:09:18;96030.16;;;29.83;35.45
10992;BME280;5549;47.028;15.514;2023-07-02T12:11:45;96029.66;;;29.96;37.08
10992;BME280;5549;47.028;15.514;2023-07-02T12:14:13;96028.66;;;30.07;35.70
10992;BME280;5549;47.028;15.514;2023-07-02T12:16:41;96026.50;;;30.09;34.86
10992;BME280;5549;47.028;15.514;2023-07-02T12:19:08;96032.38;;;29.96;34.43
10992;BME280;5549;47.028;15.514;2023-07-02T12:21:36;96030.84;;;30.10;35.42
10992;BME280;5549;47.028;15.514;2023-07-02T12:24:06;96030.28;;;30.08;35.18
10992;BME280;5549;47.028;15.514;2023-07-02T12:26:35;96026.97;;;29.96;34.07
10992;BME280;5549;47.028;15.514;2023-07-02T12:29:03;96034.81;;;29.92;34.72
10992;BME280;5549;47.028;15.514;2023-07-02T12:31:33;96025.56;;;29.83;36.14
10992;BME280;5549;47.028;15.514;2023-07-02T12:34:01;96027.34;;;29.62;36.88
10992;BME280;5549;47.028;15.514;2023-07-02T12:36:31;96026.88;;;29.76;35.19
10992;BME280;5549;47.028;15.514;2023-07-02T12:38:59;96034.44;;;29.74;36.22
10992;BME280;5549;47.028;15.514;2023-07-02T12:41:28;96033.44;;;29.90;34.85
10992;BME280;5549;47.028;15.514;2023-07-02T12:43:56;96036.72;;;29.97;34.96
10992;BME280;5549;47.028;15.514;2023-07-02T12:46:26;96036.78;;;30.07;35.53
10992;BME280;5549;47.028;15.514;2023-07-02T12:48:56;96039.31;;;29.77;36.72
10992;BME280;5549;47.028;15.514;2023-07-02T12:51:24;96042.72;;;29.25;39.59
10992;BME280;5549;47.028;15.514;2023-07-02T12:53:51;96039.31;;;28.75;41.13
10992;BME280;5549;47.028;15.514;2023-07-02T12:56:19;96040.84;;;28.39;44.92
10992;BME280;5549;47.028;15.514;2023-07-02T12:58:50;96046.38;;;28.06;44.09
10992;BME280;5549;47.028;15.514;2023-07-02T13:01:18;96043.34;;;27.64;44.29
10992;BME280;5549;47.028;15.514;2023-07-02T13:03:48;96049.09;;;27.34;45.99
10992;BME280;5549;47.028;15.514;2023-07-02T13:06:18;96042.03;;;27.49;45.21
10992;BME280;5549;47.028;15.514;2023-07-02T13:08:46;96042.22;;;27.76;45.93
10992;BME280;5549;47.028;15.514;2023-07-02T13:11:13;96051.13;;;27.60;46.51